Clemons, Iowa
Current Conditions -  °F | °C
As of 3:53 PM on Sunday 25 Jan 2015 (Local Time) from KMIW Reporting Station
Overcast Overcast  
Wind Chill: -5°   Ceiling: 1400
Heat Index:   Visibility: 10mi
Dew Point: -3°   Wind: 10mph
Humidity: 82%   Direction: 360°N
Pressure: 29.98"   Gusts: NA
Location:  42.11°N, 93.16°W
Report Text: KMIW 252153Z AUTO 36009KT 10SM OVC014 00/M03 A2998 RMK AO2 SLP162 T00001028
Loading
Personal Weather Stations






























Interactive Weather Map New forecast layout! Learn more

10-Day Weather Forecast

Advertisements
Track Severe Weather on mobile